Aeroporto :
LOGIN :

Iscrizione | Disclaimer

   EN    FR    IT 

 










Sommario :    VFR   VFR Marginale   IFR   IFR Intensivo   IFR Molto Intensivo
Visibilità : 
Base nubi : 
>= 8 km
>= 3000ft
5 / 8 km
1000 / 3000 ft
1500m / 5 km
500 / 1000 ft
800 / 1500m
200 / 500 ft
< 800m
< 200 ft
Simboli :   Temporali  Nebbia  Neve Forte  Precipitazioni Forti  Vento > 20 kt
SIGMETs :   Varie  Temporali  Ghiacco  Turbolenza  Onda orograficha  Ceneri Vulcaniche






- Altitudine del aeroporto : 162 ft
- Codice IATA : BOD


LFBD - Bordeaux / Merignac

ULTIMO METAR :
  • 141730Z AUTO 16003KT CAVOK 16/15 Q1008 TEMPO 24015G25KT 3000 SHRA SCT020CB BKN030TCU

METARs OBSOLETI :
  • 141700Z AUTO 18003KT CAVOK 17/15 Q1008 TEMPO 24015G25KT 3000 SHRA SCT020CB BKN030TCU
  • 141630Z AUTO 21004KT 9999 ///TCU 17/15 Q1009 TEMPO 24015G25KT 3000 SHRA SCT020CB BKN030TCU
  • 141600Z AUTO 23007KT 9999 ///CB 16/15 Q1009 TEMPO 24015G25KT 3000 SHRA
  • 141530Z AUTO 23009KT 7000 RA SCT007/// SCT037/// BKN094/// ///CB 16/15 Q1008 TEMPO 24015G25KT 3000 SHRA
  • 141500Z AUTO 24012KT 9999 -TSRA FEW012/// SCT036/// BKN060/// ///CB 16/15 Q1008 TEMPO 24020G40KT 1500 TSRAGR

TAF AMD TAF LFBD
Valido dal 14 a 18 ore il 16 a 00 ore UTC


141717Z 1418/1524 18005KT CAVOK TX18/1512Z TN13/1506Z
BECMG 1418/1421 25010KT
TEMPO 1419/1506 24015G25KT 3000 SHRA SCT020CB BKN030TCU
PROB30
TEMPO 1422/1506 2000 -TSRA BKN020CB
TEMPO 1512/1518 27015G25KT 4500 SHRA BKN025TCU
ATIS : +33 5 57 92 81 04



MetMap, La meteo Aeronautica in un colpo d'occhio ! - Copyright ORBIFLY Dicembre 2007 - Disclaimer

ORBIFLY MET'MAP TEAM :

Programmazione e sviluppo : Alexandra Zaïnal
Concezione e sviluppo : Baudouin d'Aumeries
Co-Programmazione e sviluppo : Marc-Olivier Méhu
Supporto tecnico e logistico : Manuel Goepfert
Aiuto per la traduzione : Arnaldo La Scala

Contatto : metmap@orbifly.com




FONTI E CREDITI :

   NOAA